WZZ49YD EPMO-LIPE
Flight info
| Callsign | WZZ49YD |
|---|---|
| Flight time | 1h 35m |
| Altitude | 36000 |
| Route | EVINA N744 TUSIN DCT MIKOV DCT GRZ DCT RADLY DCT RIFEN/N0429F350 DCT BADOP/N0341F190 P125 BAMEK |
| Aircraft | A21N/M-SDE2E3FGHIRWXY/LB1 |
Departure
| Time | 2026-04-23 13:38 |
|---|---|
| Airport | Warsaw Modlin Airport (EPMO) |
Arrival
| Time | 2026-04-23 15:14 |
|---|---|
| Airport | Bologna Guglielmo Marconi Airport (LIPE) |
| Time | Latitude | Longitude | Altitude | Speed | Heading |
|---|---|---|---|---|---|
| 2026-04-23 12:57 | 52.44753 | 20.65339 | 349 ft | 0 kts | 206° |
| 2026-04-23 12:58 | 52.44708 | 20.64860 | 345 ft | 0 kts | 206° |
| 2026-04-23 13:29 | 52.44711 | 20.64862 | 345 ft | 3 kts | 207° |
| 2026-04-23 13:30 | 52.44727 | 20.64884 | 348 ft | 4 kts | 195° |
| 2026-04-23 13:30 | 52.44747 | 20.64883 | 350 ft | 4 kts | 153° |
| 2026-04-23 13:30 | 52.44754 | 20.64864 | 353 ft | 3 kts | 81° |
| 2026-04-23 13:30 | 52.44752 | 20.64836 | 343 ft | 0 kts | 81° |
| 2026-04-23 13:33 | 52.44754 | 20.64857 | 349 ft | 10 kts | 80° |
| 2026-04-23 13:33 | 52.44771 | 20.65022 | 347 ft | 12 kts | 82° |
| 2026-04-23 13:34 | 52.44779 | 20.65108 | 347 ft | 8 kts | 79° |
| 2026-04-23 13:34 | 52.44787 | 20.65235 | 347 ft | 15 kts | 82° |
| 2026-04-23 13:34 | 52.44808 | 20.65443 | 353 ft | 21 kts | 81° |
| 2026-04-23 13:34 | 52.44825 | 20.65611 | 351 ft | 9 kts | 79° |
| 2026-04-23 13:35 | 52.44837 | 20.65739 | 356 ft | 15 kts | 82° |
| 2026-04-23 13:35 | 52.44855 | 20.65939 | 350 ft | 21 kts | 81° |
| 2026-04-23 13:35 | 52.44881 | 20.66205 | 351 ft | 27 kts | 82° |
| 2026-04-23 13:35 | 52.44910 | 20.66529 | 348 ft | 30 kts | 81° |
| 2026-04-23 13:36 | 52.44937 | 20.66823 | 349 ft | 21 kts | 81° |
| 2026-04-23 13:36 | 52.44956 | 20.67021 | 344 ft | 12 kts | 80° |
| 2026-04-23 13:36 | 52.44976 | 20.67082 | 346 ft | 9 kts | 14° |
| 2026-04-23 13:36 | 52.45047 | 20.67076 | 351 ft | 11 kts | 354° |
| 2026-04-23 13:37 | 52.45135 | 20.67050 | 348 ft | 15 kts | 349° |
| 2026-04-23 13:37 | 52.45237 | 20.67007 | 344 ft | 5 kts | 340° |
| 2026-04-23 13:37 | 52.45272 | 20.66972 | 352 ft | 8 kts | 307° |
| 2026-04-23 13:37 | 52.45280 | 20.66869 | 345 ft | 7 kts | 261° |
| 2026-04-23 13:38 | 52.45278 | 20.66842 | 343 ft | 15 kts | 262° |
| 2026-04-23 13:38 | 52.45216 | 20.66202 | 343 ft | 96 kts | 261° |
| 2026-04-23 13:38 | 52.45083 | 20.64730 | 352 ft | 160 kts | 263° |
| 2026-04-23 13:38 | 52.44927 | 20.63016 | 1218 ft | 143 kts | 268° |
| 2026-04-23 13:39 | 52.44813 | 20.61397 | 1868 ft | 141 kts | 269° |
| 2026-04-23 13:39 | 52.44639 | 20.59789 | 2269 ft | 153 kts | 264° |
| 2026-04-23 13:39 | 52.44424 | 20.57950 | 2589 ft | 178 kts | 266° |
| 2026-04-23 13:39 | 52.44302 | 20.55805 | 3002 ft | 198 kts | 282° |
| 2026-04-23 13:40 | 52.44828 | 20.53749 | 3638 ft | 201 kts | 314° |
| 2026-04-23 13:40 | 52.45982 | 20.52349 | 4268 ft | 216 kts | 340° |
| 2026-04-23 13:40 | 52.47533 | 20.51966 | 4858 ft | 236 kts | 358° |
| 2026-04-23 13:40 | 52.49202 | 20.51968 | 5712 ft | 242 kts | 358° |
| 2026-04-23 13:41 | 52.50903 | 20.51933 | 6615 ft | 247 kts | 356° |
| 2026-04-23 13:41 | 52.52634 | 20.51801 | 7503 ft | 251 kts | 355° |
| 2026-04-23 13:41 | 52.54386 | 20.51654 | 8403 ft | 253 kts | 355° |
| 2026-04-23 13:41 | 52.56153 | 20.51507 | 9308 ft | 255 kts | 355° |
| 2026-04-23 13:42 | 52.57908 | 20.51674 | 10162 ft | 259 kts | 12° |
| 2026-04-23 13:42 | 52.59566 | 20.53033 | 10931 ft | 271 kts | 33° |
| 2026-04-23 13:42 | 52.60861 | 20.55376 | 11591 ft | 291 kts | 53° |
| 2026-04-23 13:42 | 52.61520 | 20.58731 | 11901 ft | 326 kts | 75° |
| 2026-04-23 13:43 | 52.61798 | 20.62511 | 12511 ft | 337 kts | 77° |
| 2026-04-23 13:43 | 52.62064 | 20.66360 | 13234 ft | 341 kts | 75° |
| 2026-04-23 13:43 | 52.62281 | 20.70288 | 13954 ft | 353 kts | 85° |
| 2026-04-23 13:43 | 52.61783 | 20.74277 | 14664 ft | 371 kts | 105° |
| 2026-04-23 13:44 | 52.60459 | 20.77997 | 15360 ft | 387 kts | 125° |
| 2026-04-23 13:44 | 52.58409 | 20.80983 | 16044 ft | 399 kts | 144° |
| 2026-04-23 13:44 | 52.55856 | 20.82840 | 16710 ft | 407 kts | 164° |
| 2026-04-23 13:44 | 52.53037 | 20.83372 | 17351 ft | 410 kts | 184° |
| 2026-04-23 13:45 | 52.51170 | 20.82952 | 17758 ft | 410 kts | 197° |
| 2026-04-23 13:45 | 52.47637 | 20.80640 | 18616 ft | 410 kts | 208° |
| 2026-04-23 13:45 | 52.44986 | 20.78848 | 19213 ft | 416 kts | 203° |
| 2026-04-23 13:45 | 52.42212 | 20.77362 | 19798 ft | 422 kts | 199° |
| 2026-04-23 13:46 | 52.39366 | 20.76079 | 20382 ft | 426 kts | 197° |
| 2026-04-23 13:46 | 52.36484 | 20.74894 | 20958 ft | 430 kts | 196° |
| 2026-04-23 13:46 | 52.33562 | 20.73721 | 21501 ft | 434 kts | 196° |
| 2026-04-23 13:46 | 52.30616 | 20.72534 | 22035 ft | 437 kts | 196° |
| 2026-04-23 13:47 | 52.27648 | 20.71346 | 22557 ft | 441 kts | 196° |
| 2026-04-23 13:47 | 52.24650 | 20.70132 | 23072 ft | 444 kts | 196° |
| 2026-04-23 13:47 | 52.21642 | 20.68907 | 23575 ft | 447 kts | 196° |
| 2026-04-23 13:47 | 52.18651 | 20.67689 | 24054 ft | 451 kts | 196° |
| 2026-04-23 13:48 | 52.15595 | 20.66451 | 24517 ft | 454 kts | 196° |
| 2026-04-23 13:48 | 52.12512 | 20.65209 | 24934 ft | 459 kts | 195° |
| 2026-04-23 13:48 | 52.09403 | 20.63956 | 25334 ft | 463 kts | 195° |
| 2026-04-23 13:48 | 52.06258 | 20.62689 | 25742 ft | 466 kts | 195° |
| 2026-04-23 13:49 | 52.03087 | 20.61416 | 26117 ft | 471 kts | 195° |
| 2026-04-23 13:49 | 51.99897 | 20.60138 | 26475 ft | 475 kts | 194° |
| 2026-04-23 13:49 | 51.96660 | 20.58846 | 26879 ft | 478 kts | 194° |
| 2026-04-23 13:49 | 51.93425 | 20.57555 | 27304 ft | 480 kts | 194° |
| 2026-04-23 13:50 | 51.90175 | 20.56260 | 27674 ft | 483 kts | 194° |
| 2026-04-23 13:50 | 51.86935 | 20.54968 | 27992 ft | 488 kts | 194° |
| 2026-04-23 13:50 | 51.83629 | 20.53650 | 28335 ft | 491 kts | 193° |
| 2026-04-23 13:50 | 51.80291 | 20.52325 | 28657 ft | 495 kts | 193° |
| 2026-04-23 13:51 | 51.76939 | 20.50998 | 28963 ft | 498 kts | 193° |
| 2026-04-23 13:51 | 51.73566 | 20.49662 | 29276 ft | 501 kts | 193° |
| 2026-04-23 13:51 | 51.70169 | 20.48317 | 29591 ft | 504 kts | 193° |
| 2026-04-23 13:51 | 51.66751 | 20.46970 | 29861 ft | 507 kts | 193° |
| 2026-04-23 13:52 | 51.63307 | 20.45614 | 30141 ft | 511 kts | 193° |
| 2026-04-23 13:52 | 51.59841 | 20.44252 | 30437 ft | 513 kts | 193° |
| 2026-04-23 13:52 | 51.56365 | 20.42886 | 30754 ft | 515 kts | 193° |
| 2026-04-23 13:52 | 51.52875 | 20.41514 | 31084 ft | 516 kts | 193° |
| 2026-04-23 13:53 | 51.49388 | 20.40149 | 31475 ft | 514 kts | 193° |
| 2026-04-23 13:53 | 51.45919 | 20.38796 | 31852 ft | 513 kts | 193° |
| 2026-04-23 13:53 | 51.42455 | 20.37444 | 32230 ft | 511 kts | 193° |
| 2026-04-23 13:53 | 51.39084 | 20.35656 | 32572 ft | 510 kts | 205° |
| 2026-04-23 13:54 | 51.36025 | 20.32828 | 32912 ft | 506 kts | 218° |
| 2026-04-23 13:54 | 51.33208 | 20.29468 | 33223 ft | 504 kts | 220° |
| 2026-04-23 13:54 | 51.30470 | 20.26090 | 33558 ft | 503 kts | 220° |
| 2026-04-23 13:54 | 51.27700 | 20.22692 | 33895 ft | 501 kts | 220° |
| 2026-04-23 13:55 | 51.24920 | 20.19320 | 34221 ft | 500 kts | 220° |
| 2026-04-23 13:55 | 51.22139 | 20.15975 | 34502 ft | 499 kts | 220° |
| 2026-04-23 13:55 | 51.19363 | 20.12648 | 34817 ft | 497 kts | 220° |
| 2026-04-23 13:55 | 51.16602 | 20.09344 | 35109 ft | 496 kts | 220° |
| 2026-04-23 13:56 | 51.13847 | 20.06051 | 35389 ft | 494 kts | 220° |
| 2026-04-23 13:56 | 51.11099 | 20.02769 | 35658 ft | 493 kts | 220° |
| 2026-04-23 13:56 | 51.09282 | 20.00606 | 35824 ft | 492 kts | 220° |
| 2026-04-23 13:56 | 51.06537 | 19.97345 | 36018 ft | 491 kts | 219° |
| 2026-04-23 13:57 | 51.02911 | 19.93049 | 36036 ft | 489 kts | 219° |
| 2026-04-23 13:57 | 50.98341 | 19.87649 | 36017 ft | 488 kts | 219° |
| 2026-04-23 13:58 | 50.92898 | 19.81220 | 36015 ft | 486 kts | 219° |
| 2026-04-23 13:58 | 50.87478 | 19.74833 | 36026 ft | 486 kts | 219° |
| 2026-04-23 13:59 | 50.82089 | 19.68504 | 36033 ft | 485 kts | 219° |
| 2026-04-23 13:59 | 50.76673 | 19.62164 | 36048 ft | 484 kts | 219° |
| 2026-04-23 14:00 | 50.71275 | 19.55865 | 36045 ft | 483 kts | 219° |
| 2026-04-23 14:00 | 50.65871 | 19.49576 | 36056 ft | 482 kts | 218° |
| 2026-04-23 14:01 | 50.60476 | 19.43316 | 36057 ft | 482 kts | 218° |
| 2026-04-23 14:01 | 50.55075 | 19.37079 | 36065 ft | 480 kts | 218° |
| 2026-04-23 14:02 | 50.49717 | 19.30904 | 36061 ft | 481 kts | 218° |
| 2026-04-23 14:02 | 50.44314 | 19.24697 | 36053 ft | 481 kts | 218° |
| 2026-04-23 14:03 | 50.38922 | 19.18492 | 36047 ft | 481 kts | 218° |
| 2026-04-23 14:03 | 50.33516 | 19.12310 | 36047 ft | 480 kts | 218° |
| 2026-04-23 14:04 | 50.28123 | 19.06160 | 36050 ft | 480 kts | 218° |
| 2026-04-23 14:04 | 50.22729 | 19.00022 | 36048 ft | 480 kts | 218° |
| 2026-04-23 14:05 | 50.17324 | 18.93890 | 36049 ft | 480 kts | 218° |
| 2026-04-23 14:05 | 50.11919 | 18.87782 | 36052 ft | 479 kts | 217° |
| 2026-04-23 14:06 | 50.06542 | 18.81720 | 36056 ft | 479 kts | 217° |
| 2026-04-23 14:06 | 50.01131 | 18.75639 | 36060 ft | 479 kts | 217° |
| 2026-04-23 14:07 | 49.95741 | 18.69592 | 36060 ft | 474 kts | 217° |
| 2026-04-23 14:07 | 49.87717 | 18.60619 | 36069 ft | 474 kts | 217° |
| 2026-04-23 14:08 | 49.82845 | 18.53844 | 36075 ft | 470 kts | 232° |
| 2026-04-23 14:08 | 49.78755 | 18.46016 | 36075 ft | 470 kts | 233° |
| 2026-04-23 14:09 | 49.74637 | 18.38143 | 36079 ft | 470 kts | 233° |
| 2026-04-23 14:09 | 49.70492 | 18.30307 | 36079 ft | 471 kts | 233° |
| 2026-04-23 14:10 | 49.66338 | 18.22470 | 36082 ft | 471 kts | 233° |
| 2026-04-23 14:10 | 49.62170 | 18.14656 | 36080 ft | 472 kts | 233° |
| 2026-04-23 14:11 | 49.58001 | 18.06838 | 36083 ft | 471 kts | 233° |
| 2026-04-23 14:11 | 49.53826 | 17.99042 | 36084 ft | 471 kts | 232° |
| 2026-04-23 14:12 | 49.49646 | 17.91261 | 36080 ft | 472 kts | 232° |
| 2026-04-23 14:12 | 49.45484 | 17.83534 | 36078 ft | 472 kts | 232° |
| 2026-04-23 14:13 | 49.41286 | 17.75770 | 36081 ft | 472 kts | 232° |
| 2026-04-23 14:13 | 49.37089 | 17.68015 | 36080 ft | 473 kts | 232° |
| 2026-04-23 14:14 | 49.32877 | 17.60266 | 36079 ft | 472 kts | 232° |
| 2026-04-23 14:14 | 49.28661 | 17.52524 | 36080 ft | 473 kts | 232° |
| 2026-04-23 14:15 | 49.24442 | 17.44807 | 36080 ft | 472 kts | 232° |
| 2026-04-23 14:15 | 49.20252 | 17.37166 | 36084 ft | 472 kts | 232° |
| 2026-04-23 14:16 | 49.16017 | 17.29474 | 36089 ft | 472 kts | 232° |
| 2026-04-23 14:16 | 49.11786 | 17.21792 | 36091 ft | 472 kts | 232° |
| 2026-04-23 14:17 | 49.07537 | 17.14122 | 36092 ft | 473 kts | 231° |
| 2026-04-23 14:17 | 49.03283 | 17.06447 | 36089 ft | 473 kts | 232° |
| 2026-04-23 14:18 | 48.99030 | 16.98801 | 36097 ft | 473 kts | 231° |
| 2026-04-23 14:18 | 48.94798 | 16.91202 | 36098 ft | 473 kts | 231° |
| 2026-04-23 14:19 | 48.90519 | 16.83583 | 36100 ft | 473 kts | 231° |
| 2026-04-23 14:19 | 48.86239 | 16.75961 | 36099 ft | 473 kts | 231° |
| 2026-04-23 14:20 | 48.81958 | 16.68347 | 36100 ft | 474 kts | 231° |
| 2026-04-23 14:20 | 48.77180 | 16.61481 | 36111 ft | 476 kts | 213° |
| 2026-04-23 14:21 | 48.71195 | 16.57169 | 36138 ft | 476 kts | 202° |
| 2026-04-23 14:21 | 48.65145 | 16.53289 | 36127 ft | 475 kts | 203° |
| 2026-04-23 14:22 | 48.59068 | 16.49295 | 36127 ft | 475 kts | 203° |
| 2026-04-23 14:22 | 48.53000 | 16.45289 | 36132 ft | 475 kts | 203° |
| 2026-04-23 14:23 | 48.46947 | 16.41299 | 36125 ft | 475 kts | 203° |
| 2026-04-23 14:23 | 48.40879 | 16.37317 | 36130 ft | 475 kts | 203° |
| 2026-04-23 14:24 | 48.34854 | 16.33379 | 36126 ft | 474 kts | 203° |
| 2026-04-23 14:24 | 48.28810 | 16.29428 | 36118 ft | 473 kts | 203° |
| 2026-04-23 14:25 | 48.22763 | 16.25492 | 36113 ft | 474 kts | 203° |
| 2026-04-23 14:25 | 48.16702 | 16.21553 | 36113 ft | 475 kts | 203° |
| 2026-04-23 14:26 | 48.10635 | 16.17625 | 36115 ft | 474 kts | 203° |
| 2026-04-23 14:26 | 48.04576 | 16.13707 | 35940 ft | 473 kts | 203° |
| 2026-04-23 14:27 | 48.01556 | 16.11761 | 35726 ft | 472 kts | 203° |
| 2026-04-23 14:27 | 47.98571 | 16.09842 | 35485 ft | 474 kts | 203° |
| 2026-04-23 14:27 | 47.95578 | 16.07918 | 35243 ft | 474 kts | 203° |
| 2026-04-23 14:27 | 47.92502 | 16.05943 | 34997 ft | 475 kts | 203° |
| 2026-04-23 14:28 | 47.89452 | 16.03986 | 34745 ft | 476 kts | 203° |
| 2026-04-23 14:28 | 47.86409 | 16.02037 | 34494 ft | 477 kts | 203° |
| 2026-04-23 14:28 | 47.83358 | 16.00085 | 34247 ft | 477 kts | 203° |
| 2026-04-23 14:28 | 47.80301 | 15.98133 | 34109 ft | 478 kts | 203° |
| 2026-04-23 14:29 | 47.74183 | 15.94228 | 34112 ft | 480 kts | 203° |
| 2026-04-23 14:29 | 47.68085 | 15.90352 | 34126 ft | 479 kts | 203° |
| 2026-04-23 14:30 | 47.61959 | 15.86474 | 34139 ft | 479 kts | 203° |
| 2026-04-23 14:30 | 47.55826 | 15.82591 | 34140 ft | 479 kts | 203° |
| 2026-04-23 14:31 | 47.49697 | 15.78723 | 34139 ft | 479 kts | 203° |
| 2026-04-23 14:31 | 47.43590 | 15.74885 | 34139 ft | 479 kts | 202° |
| 2026-04-23 14:32 | 47.37468 | 15.71041 | 34137 ft | 477 kts | 202° |
| 2026-04-23 14:32 | 47.31351 | 15.67208 | 34142 ft | 477 kts | 202° |
| 2026-04-23 14:33 | 47.25235 | 15.63388 | 34139 ft | 478 kts | 202° |
| 2026-04-23 14:33 | 47.19104 | 15.59564 | 34139 ft | 478 kts | 202° |
| 2026-04-23 14:34 | 47.12971 | 15.55762 | 34143 ft | 478 kts | 202° |
| 2026-04-23 14:34 | 47.06836 | 15.51971 | 34141 ft | 478 kts | 202° |
| 2026-04-23 14:35 | 47.00715 | 15.48187 | 34139 ft | 477 kts | 202° |
| 2026-04-23 14:35 | 46.94636 | 15.44297 | 34140 ft | 477 kts | 206° |
| 2026-04-23 14:36 | 46.88767 | 15.39713 | 34140 ft | 477 kts | 208° |
| 2026-04-23 14:36 | 46.82947 | 15.35136 | 34140 ft | 477 kts | 207° |
| 2026-04-23 14:37 | 46.77086 | 15.30579 | 34142 ft | 477 kts | 207° |
| 2026-04-23 14:37 | 46.71219 | 15.26032 | 34136 ft | 477 kts | 207° |
| 2026-04-23 14:38 | 46.65492 | 15.21135 | 34127 ft | 477 kts | 219° |
| 2026-04-23 14:38 | 46.63119 | 15.17793 | 34128 ft | 476 kts | 232° |
| 2026-04-23 14:38 | 46.61137 | 15.13938 | 34135 ft | 475 kts | 238° |
| 2026-04-23 14:39 | 46.57475 | 15.06027 | 34132 ft | 474 kts | 238° |
| 2026-04-23 14:39 | 46.53719 | 14.98133 | 34122 ft | 475 kts | 237° |
| 2026-04-23 14:40 | 46.49928 | 14.90266 | 34121 ft | 475 kts | 237° |
| 2026-04-23 14:40 | 46.46133 | 14.82424 | 34122 ft | 475 kts | 237° |
| 2026-04-23 14:41 | 46.42328 | 14.74575 | 34124 ft | 476 kts | 237° |
| 2026-04-23 14:41 | 46.38517 | 14.66739 | 34131 ft | 476 kts | 236° |
| 2026-04-23 14:42 | 46.35344 | 14.60219 | 34122 ft | 476 kts | 237° |
| 2026-04-23 14:42 | 46.30917 | 14.51092 | 34127 ft | 477 kts | 236° |
| 2026-04-23 14:43 | 46.27735 | 14.44575 | 34114 ft | 476 kts | 236° |
| 2026-04-23 14:43 | 46.23897 | 14.36764 | 34113 ft | 476 kts | 236° |
| 2026-04-23 14:44 | 46.20048 | 14.28950 | 34117 ft | 478 kts | 236° |
| 2026-04-23 14:44 | 46.16186 | 14.21138 | 34121 ft | 477 kts | 236° |
| 2026-04-23 14:45 | 46.12301 | 14.13481 | 34126 ft | 474 kts | 230° |
| 2026-04-23 14:45 | 46.07842 | 14.06469 | 34136 ft | 479 kts | 227° |
| 2026-04-23 14:46 | 46.03322 | 13.99450 | 34138 ft | 478 kts | 228° |
| 2026-04-23 14:46 | 45.98799 | 13.92371 | 34148 ft | 479 kts | 228° |
| 2026-04-23 14:47 | 45.94297 | 13.85314 | 34162 ft | 478 kts | 228° |
| 2026-04-23 14:47 | 45.89841 | 13.78362 | 34156 ft | 473 kts | 227° |
| 2026-04-23 14:48 | 45.85329 | 13.71353 | 34170 ft | 478 kts | 228° |
| 2026-04-23 14:48 | 45.80810 | 13.64324 | 34173 ft | 479 kts | 227° |
| 2026-04-23 14:49 | 45.76315 | 13.57363 | 34170 ft | 478 kts | 227° |
| 2026-04-23 14:49 | 45.71794 | 13.50372 | 34171 ft | 478 kts | 227° |
| 2026-04-23 14:50 | 45.67284 | 13.43420 | 34166 ft | 471 kts | 227° |
| 2026-04-23 14:50 | 45.62805 | 13.36535 | 34173 ft | 477 kts | 227° |
| 2026-04-23 14:51 | 45.58279 | 13.29591 | 33707 ft | 474 kts | 227° |
| 2026-04-23 14:51 | 45.56029 | 13.26149 | 32977 ft | 473 kts | 227° |
| 2026-04-23 14:51 | 45.53786 | 13.22729 | 32302 ft | 471 kts | 226° |
| 2026-04-23 14:52 | 45.51580 | 13.19362 | 31646 ft | 468 kts | 226° |
| 2026-04-23 14:52 | 45.49337 | 13.15941 | 31011 ft | 465 kts | 227° |
| 2026-04-23 14:52 | 45.47141 | 13.12588 | 30392 ft | 460 kts | 227° |
| 2026-04-23 14:52 | 45.44977 | 13.09284 | 29781 ft | 452 kts | 226° |
| 2026-04-23 14:53 | 45.42863 | 13.06079 | 29186 ft | 448 kts | 226° |
| 2026-04-23 14:53 | 45.40744 | 13.02860 | 28602 ft | 444 kts | 226° |
| 2026-04-23 14:53 | 45.38639 | 12.99654 | 28024 ft | 440 kts | 226° |
| 2026-04-23 14:53 | 45.36554 | 12.96483 | 27424 ft | 437 kts | 226° |
| 2026-04-23 14:54 | 45.34480 | 12.93337 | 26821 ft | 434 kts | 226° |
| 2026-04-23 14:54 | 45.32423 | 12.90221 | 26231 ft | 430 kts | 226° |
| 2026-04-23 14:54 | 45.30380 | 12.87137 | 25653 ft | 427 kts | 226° |
| 2026-04-23 14:54 | 45.28352 | 12.84082 | 25098 ft | 422 kts | 226° |
| 2026-04-23 14:55 | 45.26346 | 12.81063 | 24524 ft | 419 kts | 226° |
| 2026-04-23 14:55 | 45.24353 | 12.78064 | 23945 ft | 416 kts | 226° |
| 2026-04-23 14:55 | 45.22371 | 12.75088 | 23399 ft | 412 kts | 226° |
| 2026-04-23 14:55 | 45.20436 | 12.72180 | 22866 ft | 408 kts | 226° |
| 2026-04-23 14:56 | 45.18492 | 12.69264 | 22315 ft | 405 kts | 226° |
| 2026-04-23 14:56 | 45.16564 | 12.66378 | 21738 ft | 399 kts | 226° |
| 2026-04-23 14:56 | 45.14675 | 12.63552 | 21190 ft | 392 kts | 226° |
| 2026-04-23 14:56 | 45.12816 | 12.60777 | 20680 ft | 386 kts | 227° |
| 2026-04-23 14:57 | 45.10974 | 12.58028 | 20185 ft | 382 kts | 227° |
| 2026-04-23 14:57 | 45.09154 | 12.55309 | 19698 ft | 378 kts | 227° |
| 2026-04-23 14:57 | 45.07348 | 12.52615 | 19215 ft | 375 kts | 227° |
| 2026-04-23 14:57 | 45.05559 | 12.49950 | 18739 ft | 373 kts | 227° |
| 2026-04-23 14:58 | 45.03772 | 12.47289 | 18274 ft | 373 kts | 227° |
| 2026-04-23 14:58 | 45.02005 | 12.44662 | 17829 ft | 372 kts | 227° |
| 2026-04-23 14:58 | 45.00219 | 12.42011 | 17373 ft | 372 kts | 227° |
| 2026-04-23 14:58 | 44.98431 | 12.39362 | 16912 ft | 373 kts | 227° |
| 2026-04-23 14:59 | 44.96637 | 12.36702 | 16469 ft | 374 kts | 227° |
| 2026-04-23 14:59 | 44.94846 | 12.34048 | 16008 ft | 372 kts | 227° |
| 2026-04-23 14:59 | 44.93073 | 12.31427 | 15552 ft | 364 kts | 227° |
| 2026-04-23 14:59 | 44.91334 | 12.28861 | 15184 ft | 362 kts | 227° |
| 2026-04-23 15:00 | 44.89588 | 12.26289 | 14761 ft | 363 kts | 227° |
| 2026-04-23 15:00 | 44.87839 | 12.23713 | 14319 ft | 365 kts | 227° |
| 2026-04-23 15:00 | 44.86078 | 12.21122 | 13872 ft | 365 kts | 227° |
| 2026-04-23 15:00 | 44.84331 | 12.18555 | 13424 ft | 360 kts | 227° |
| 2026-04-23 15:01 | 44.82606 | 12.16017 | 12985 ft | 355 kts | 227° |
| 2026-04-23 15:01 | 44.80903 | 12.13525 | 12537 ft | 351 kts | 227° |
| 2026-04-23 15:01 | 44.79247 | 12.11094 | 12093 ft | 346 kts | 227° |
| 2026-04-23 15:01 | 44.77593 | 12.08668 | 11634 ft | 340 kts | 227° |
| 2026-04-23 15:02 | 44.75984 | 12.06309 | 11174 ft | 329 kts | 227° |
| 2026-04-23 15:02 | 44.74414 | 12.04003 | 10799 ft | 324 kts | 227° |
| 2026-04-23 15:02 | 44.72875 | 12.01749 | 10530 ft | 315 kts | 227° |
| 2026-04-23 15:02 | 44.71369 | 11.99544 | 10276 ft | 310 kts | 227° |
| 2026-04-23 15:03 | 44.69876 | 11.97363 | 9938 ft | 309 kts | 227° |
| 2026-04-23 15:03 | 44.68378 | 11.95177 | 9548 ft | 311 kts | 227° |
| 2026-04-23 15:03 | 44.66885 | 11.92995 | 9155 ft | 308 kts | 227° |
| 2026-04-23 15:03 | 44.65408 | 11.90843 | 8752 ft | 304 kts | 227° |
| 2026-04-23 15:04 | 44.63947 | 11.88713 | 8344 ft | 301 kts | 227° |
| 2026-04-23 15:04 | 44.62499 | 11.86608 | 7958 ft | 297 kts | 226° |
| 2026-04-23 15:04 | 44.61075 | 11.84538 | 7590 ft | 293 kts | 226° |
| 2026-04-23 15:04 | 44.59656 | 11.82473 | 7208 ft | 294 kts | 226° |
| 2026-04-23 15:05 | 44.58254 | 11.80434 | 6825 ft | 292 kts | 226° |
| 2026-04-23 15:05 | 44.56851 | 11.78399 | 6439 ft | 288 kts | 226° |
| 2026-04-23 15:05 | 44.55456 | 11.76382 | 6014 ft | 287 kts | 226° |
| 2026-04-23 15:05 | 44.54072 | 11.74376 | 5576 ft | 283 kts | 226° |
| 2026-04-23 15:06 | 44.52725 | 11.72426 | 5167 ft | 276 kts | 226° |
| 2026-04-23 15:06 | 44.51390 | 11.70492 | 4781 ft | 276 kts | 226° |
| 2026-04-23 15:06 | 44.50064 | 11.68578 | 4441 ft | 270 kts | 226° |
| 2026-04-23 15:06 | 44.48764 | 11.66703 | 4067 ft | 265 kts | 226° |
| 2026-04-23 15:07 | 44.47510 | 11.64889 | 3868 ft | 252 kts | 226° |
| 2026-04-23 15:07 | 44.46341 | 11.63196 | 3904 ft | 237 kts | 227° |
| 2026-04-23 15:07 | 44.45197 | 11.61544 | 3930 ft | 236 kts | 226° |
| 2026-04-23 15:07 | 44.44085 | 11.59874 | 3936 ft | 236 kts | 233° |
| 2026-04-23 15:08 | 44.43433 | 11.57839 | 3776 ft | 223 kts | 266° |
| 2026-04-23 15:08 | 44.43650 | 11.55864 | 3580 ft | 194 kts | 293° |
| 2026-04-23 15:08 | 44.44235 | 11.54256 | 3470 ft | 178 kts | 301° |
| 2026-04-23 15:09 | 44.45363 | 11.51476 | 3087 ft | 154 kts | 301° |
| 2026-04-23 15:09 | 44.45870 | 11.50151 | 2976 ft | 154 kts | 298° |
| 2026-04-23 15:09 | 44.46357 | 11.48817 | 2971 ft | 154 kts | 298° |
| 2026-04-23 15:09 | 44.46843 | 11.47477 | 2980 ft | 154 kts | 298° |
| 2026-04-23 15:10 | 44.47162 | 11.46590 | 2985 ft | 154 kts | 298° |
| 2026-04-23 15:10 | 44.47811 | 11.44792 | 2825 ft | 154 kts | 297° |
| 2026-04-23 15:10 | 44.48295 | 11.43449 | 2633 ft | 154 kts | 297° |
| 2026-04-23 15:10 | 44.48768 | 11.42136 | 2394 ft | 151 kts | 297° |
| 2026-04-23 15:11 | 44.49209 | 11.40913 | 2155 ft | 135 kts | 297° |
| 2026-04-23 15:11 | 44.49629 | 11.39746 | 1932 ft | 134 kts | 296° |
| 2026-04-23 15:11 | 44.50047 | 11.38586 | 1718 ft | 133 kts | 296° |
| 2026-04-23 15:11 | 44.50464 | 11.37430 | 1511 ft | 133 kts | 296° |
| 2026-04-23 15:12 | 44.50882 | 11.36269 | 1302 ft | 133 kts | 296° |
| 2026-04-23 15:12 | 44.51297 | 11.35115 | 1097 ft | 132 kts | 296° |
| 2026-04-23 15:12 | 44.51709 | 11.33968 | 893 ft | 132 kts | 296° |
| 2026-04-23 15:12 | 44.52118 | 11.32820 | 689 ft | 132 kts | 296° |
| 2026-04-23 15:13 | 44.52534 | 11.31676 | 456 ft | 132 kts | 296° |
| 2026-04-23 15:13 | 44.52949 | 11.30530 | 256 ft | 132 kts | 295° |
| 2026-04-23 15:13 | 44.53349 | 11.29389 | 152 ft | 125 kts | 296° |
| 2026-04-23 15:13 | 44.53691 | 11.28458 | 135 ft | 73 kts | 297° |
| 2026-04-23 15:14 | 44.53831 | 11.28070 | 135 ft | 18 kts | 296° |
| 2026-04-23 15:14 | 44.53765 | 11.27995 | 135 ft | 20 kts | 162° |
| 2026-04-23 15:14 | 44.53663 | 11.28033 | 136 ft | 16 kts | 148° |
| 2026-04-23 15:14 | 44.53596 | 11.28166 | 136 ft | 18 kts | 116° |
| 2026-04-23 15:15 | 44.53541 | 11.28332 | 136 ft | 20 kts | 117° |
| 2026-04-23 15:15 | 44.53476 | 11.28512 | 136 ft | 22 kts | 117° |
| 2026-04-23 15:15 | 44.53407 | 11.28705 | 135 ft | 23 kts | 116° |
| 2026-04-23 15:15 | 44.53329 | 11.28916 | 136 ft | 25 kts | 117° |
| 2026-04-23 15:16 | 44.53283 | 11.29023 | 136 ft | 11 kts | 145° |
| 2026-04-23 15:16 | 44.53221 | 11.29025 | 136 ft | 8 kts | 207° |
| 2026-04-23 15:16 | 44.53190 | 11.29002 | 136 ft | 1 kts | 207° |
| 2026-04-23 15:16 | 44.53189 | 11.29001 | 136 ft | 0 kts | 207° |